PWSweather.com
Personal Weather Stations
Station Observations
IMAZOWIE6
WarszawaPL

WarszawaPL

Lat: 52.27957, Lon: 21.05489

Elevation: 100

Station Type: WS1080

http://stacjapogody.waw.pl/

High Low Average
Temperature 52.7°F11.5°C 34.3°F1.3°C 43.9°F6.6°C
Dew Point 35.1°F1.7°C -169.0°F-111.7°C 9.3°F-12.6°C
Winds 3.4 mph 5.5 kmh Calm Calm 1.0 mph N1.6 kmh N
Wind Gusts 6.2 mph10.0 kmh -- 2.0 mph3.2 kmh
Humidity 61% 10% 43%
Pressure 29.32 in992.9 mb 29.21 in989.2 mb -
Precipitation 0.00 in0.0 mm - -
Hour Temp Dew Point Humidity Winds Wind Gusts Pressure Precip Precip Rate Daily Precip Total
12:05 AM 39.0°F3.9°C -168.9°F-111.6°C - Calm Calm 2.0 mph3.2 kmh 29.26 in990.9 mb 0.00 in0.0 mm 0.00 in0.0 mm 0.00 in0.0 mm
12:20 AM 39.0°F3.9°C -168.9°F-111.6°C - Calm Calm 0.6 mph1.0 kmh 29.26 in990.9 mb 0.00 in0.0 mm 0.00 in0.0 mm 0.00 in0.0 mm
12:35 AM 38.8°F3.8°C -168.9°F-111.6°C - Calm Calm 0.6 mph1.0 kmh 29.25 in990.5 mb 0.00 in0.0 mm 0.00 in0.0 mm 0.00 in0.0 mm
12:50 AM 38.8°F3.8°C -168.9°F-111.6°C - 0.6 mph N1.0 kmh N 2.8 mph4.5 kmh 29.25 in990.5 mb 0.00 in0.0 mm 0.00 in0.0 mm 0.00 in0.0 mm
01:05 AM 38.5°F3.6°C -169.0°F-111.7°C - Calm Calm 1.4 mph2.3 kmh 29.25 in990.5 mb 0.00 in0.0 mm 0.00 in0.0 mm 0.00 in0.0 mm
01:20 AM 38.3°F3.5°C -169.0°F-111.7°C - Calm Calm 2.0 mph3.2 kmh 29.25 in990.5 mb 0.00 in0.0 mm 0.00 in0.0 mm 0.00 in0.0 mm
01:35 AM 38.1°F3.4°C -13.7°F-25.4°C 10% 0.6 mph N1.0 kmh N 2.0 mph3.2 kmh 29.24 in990.2 mb 0.00 in0.0 mm 0.00 in0.0 mm 0.00 in0.0 mm
01:50 AM 37.9°F3.3°C -13.8°F-25.4°C 10% 1.4 mph N2.3 kmh N 2.8 mph4.5 kmh 29.24 in990.2 mb 0.00 in0.0 mm 0.00 in0.0 mm 0.00 in0.0 mm
02:05 AM 38.1°F3.4°C -13.7°F-25.4°C 10% 2.0 mph N3.2 kmh N 4.8 mph7.7 kmh 29.24 in990.2 mb 0.00 in0.0 mm 0.00 in0.0 mm 0.00 in0.0 mm
02:20 AM 38.3°F3.5°C -13.5°F-25.3°C 10% 2.8 mph N4.5 kmh N 6.2 mph10.0 kmh 29.23 in989.8 mb 0.00 in0.0 mm 0.00 in0.0 mm 0.00 in0.0 mm
02:35 AM 38.1°F3.4°C -13.7°F-25.4°C 10% 1.4 mph N2.3 kmh N 4.8 mph7.7 kmh 29.23 in989.8 mb 0.00 in0.0 mm 0.00 in0.0 mm 0.00 in0.0 mm
02:50 AM 37.6°F3.1°C -14.1°F-25.6°C 10% 2.0 mph N3.2 kmh N 3.4 mph5.5 kmh 29.23 in989.8 mb 0.00 in0.0 mm 0.00 in0.0 mm 0.00 in0.0 mm
03:05 AM 37.2°F2.9°C -12.5°F-24.7°C 11% Calm Calm 0.6 mph1.0 kmh 29.22 in989.5 mb 0.00 in0.0 mm 0.00 in0.0 mm 0.00 in0.0 mm
03:20 AM 36.3°F2.4°C -11.5°F-24.2°C 12% Calm Calm 2.0 mph3.2 kmh 29.22 in989.5 mb 0.01 in0.3 mm 0.05 in1.3 mm 0.01 in0.3 mm
03:35 AM 35.8°F2.1°C -4.9°F-20.5°C 17% 0.6 mph N1.0 kmh N 2.0 mph3.2 kmh 29.21 in989.2 mb 0.01 in0.3 mm 0.00 in0.0 mm 0.01 in0.3 mm
03:50 AM 35.2°F1.8°C -2.0°F-18.9°C 20% Calm Calm 1.4 mph2.3 kmh 29.21 in989.2 mb 0.02 in0.5 mm 0.05 in1.3 mm 0.02 in0.5 mm
04:05 AM 35.1°F1.7°C -1.2°F-18.4°C 21% 0.6 mph N1.0 kmh N 2.8 mph4.5 kmh 29.21 in989.2 mb 0.02 in0.5 mm 0.00 in0.0 mm 0.02 in0.5 mm
04:20 AM 34.9°F1.6°C -0.3°F-17.9°C 22% Calm Calm 1.4 mph2.3 kmh 29.22 in989.5 mb 0.01 in0.3 mm 0.00 in0.0 mm 0.02 in0.5 mm
04:35 AM 34.5°F1.4°C 0.3°F-17.6°C 23% Calm Calm 3.4 mph5.5 kmh 29.22 in989.5 mb 0.01 in0.3 mm 0.00 in0.0 mm 0.02 in0.5 mm
04:50 AM 34.3°F1.3°C 1.9°F-16.7°C 25% Calm Calm 2.0 mph3.2 kmh 29.21 in989.2 mb 0.01 in0.3 mm 0.00 in0.0 mm 0.02 in0.5 mm
05:05 AM 34.5°F1.4°C 2.9°F-16.2°C 26% 0.6 mph N1.0 kmh N 2.0 mph3.2 kmh 29.21 in989.2 mb 0.01 in0.3 mm 0.00 in0.0 mm 0.02 in0.5 mm
05:20 AM 34.7°F1.5°C 5.5°F-14.7°C 29% Calm Calm 2.8 mph4.5 kmh 29.21 in989.2 mb 0.01 in0.3 mm 0.00 in0.0 mm 0.02 in0.5 mm
05:35 AM 34.9°F1.6°C 7.8°F-13.4°C 32% 1.4 mph N2.3 kmh N 3.4 mph5.5 kmh 29.22 in989.5 mb 0.01 in0.3 mm 0.00 in0.0 mm 0.02 in0.5 mm
05:50 AM 35.1°F1.7°C 10.6°F-11.9°C 36% 0.6 mph N1.0 kmh N 2.8 mph4.5 kmh 29.21 in989.2 mb 0.02 in0.5 mm 0.05 in1.3 mm 0.04 in1.0 mm
06:05 AM 35.2°F1.8°C 13.1°F-10.5°C 40% 1.4 mph N2.3 kmh N 3.4 mph5.5 kmh 29.22 in989.5 mb 0.02 in0.5 mm 0.00 in0.0 mm 0.04 in1.0 mm
06:20 AM 35.4°F1.9°C 14.4°F-9.8°C 42% 1.4 mph N2.3 kmh N 4.8 mph7.7 kmh 29.23 in989.8 mb 0.00 in0.0 mm 0.00 in0.0 mm 0.04 in1.0 mm
06:35 AM 35.2°F1.8°C 15.3°F-9.3°C 44% 0.6 mph N1.0 kmh N 3.4 mph5.5 kmh 29.23 in989.8 mb 0.00 in0.0 mm 0.00 in0.0 mm 0.04 in1.0 mm
06:50 AM 35.6°F2.0°C 16.7°F-8.5°C 46% 1.4 mph N2.3 kmh N 4.0 mph6.4 kmh 29.23 in989.8 mb 0.00 in0.0 mm 0.00 in0.0 mm 0.04 in1.0 mm
07:05 AM 35.6°F2.0°C 18.1°F-7.7°C 49% 0.6 mph N1.0 kmh N 2.0 mph3.2 kmh 29.24 in990.2 mb 0.00 in0.0 mm 0.00 in0.0 mm 0.04 in1.0 mm
07:20 AM 35.6°F2.0°C 18.6°F-7.4°C 50% 0.6 mph N1.0 kmh N 3.4 mph5.5 kmh 29.23 in989.8 mb 0.00 in0.0 mm 0.00 in0.0 mm 0.04 in1.0 mm
07:35 AM 35.8°F2.1°C 19.2°F-7.1°C 51% 0.6 mph N1.0 kmh N 2.8 mph4.5 kmh 29.24 in990.2 mb 0.00 in0.0 mm 0.00 in0.0 mm 0.04 in1.0 mm
07:50 AM 36.3°F2.4°C 20.2°F-6.6°C 52% 2.0 mph N3.2 kmh N 4.8 mph7.7 kmh 29.24 in990.2 mb 0.00 in0.0 mm 0.00 in0.0 mm 0.04 in1.0 mm
08:05 AM 36.7°F2.6°C 21.0°F-6.1°C 53% 0.6 mph N1.0 kmh N 2.0 mph3.2 kmh 29.24 in990.2 mb 0.01 in0.3 mm 0.02 in0.5 mm 0.05 in1.3 mm
08:20 AM 37.0°F2.8°C 21.8°F-5.7°C 54% 1.4 mph N2.3 kmh N 2.8 mph4.5 kmh 29.24 in990.2 mb 0.00 in0.0 mm 0.00 in0.0 mm 0.05 in1.3 mm
08:35 AM 37.6°F3.1°C 22.7°F-5.2°C 55% Calm Calm 1.4 mph2.3 kmh 29.24 in990.2 mb 0.00 in0.0 mm 0.00 in0.0 mm 0.05 in1.3 mm
08:50 AM 38.5°F3.6°C 24.0°F-4.4°C 56% 0.6 mph N1.0 kmh N 3.4 mph5.5 kmh 29.25 in990.5 mb 0.00 in0.0 mm 0.00 in0.0 mm 0.05 in1.3 mm
09:05 AM 38.5°F3.6°C 24.0°F-4.4°C 56% Calm Calm 1.4 mph2.3 kmh 29.26 in990.9 mb 0.00 in0.0 mm 0.00 in0.0 mm 0.05 in1.3 mm
09:20 AM 38.8°F3.8°C 24.7°F-4.1°C 57% 0.6 mph N1.0 kmh N 1.4 mph2.3 kmh 29.25 in990.5 mb 0.00 in0.0 mm 0.00 in0.0 mm 0.05 in1.3 mm
09:35 AM 39.6°F4.2°C 25.8°F-3.4°C 58% Calm Calm 2.0 mph3.2 kmh 29.25 in990.5 mb 0.00 in0.0 mm 0.00 in0.0 mm 0.05 in1.3 mm
09:50 AM 40.3°F4.6°C 26.9°F-2.8°C 59% Calm Calm 1.4 mph2.3 kmh 29.26 in990.9 mb 0.00 in0.0 mm 0.00 in0.0 mm 0.05 in1.3 mm
10:05 AM 40.8°F4.9°C 27.4°F-2.6°C 59% 0.6 mph N1.0 kmh N 2.0 mph3.2 kmh 29.26 in990.9 mb 0.00 in0.0 mm 0.00 in0.0 mm 0.05 in1.3 mm
10:20 AM 41.4°F5.2°C 28.4°F-2.0°C 60% Calm Calm 1.4 mph2.3 kmh 29.27 in991.2 mb 0.00 in0.0 mm 0.00 in0.0 mm 0.05 in1.3 mm
10:35 AM 42.3°F5.7°C 29.2°F-1.6°C 60% Calm Calm 1.4 mph2.3 kmh 29.27 in991.2 mb 0.00 in0.0 mm 0.00 in0.0 mm 0.05 in1.3 mm
10:50 AM 42.6°F5.9°C 29.6°F-1.3°C 60% Calm Calm 2.0 mph3.2 kmh 29.28 in991.5 mb 0.00 in0.0 mm 0.00 in0.0 mm 0.05 in1.3 mm
11:05 AM 43.0°F6.1°C 29.9°F-1.2°C 60% Calm Calm 1.4 mph2.3 kmh 29.29 in991.9 mb 0.00 in0.0 mm 0.00 in0.0 mm 0.05 in1.3 mm
11:20 AM 43.5°F6.4°C 30.4°F-0.9°C 60% Calm Calm 1.4 mph2.3 kmh 29.29 in991.9 mb 0.00 in0.0 mm 0.00 in0.0 mm 0.05 in1.3 mm
11:35 AM 44.6°F7.0°C 31.8°F-0.1°C 61% Calm Calm 1.4 mph2.3 kmh 29.29 in991.9 mb 0.00 in0.0 mm 0.00 in0.0 mm 0.05 in1.3 mm
11:50 AM 45.0°F7.2°C 32.2°F0.1°C 61% Calm Calm 1.4 mph2.3 kmh 29.29 in991.9 mb 0.00 in0.0 mm 0.00 in0.0 mm 0.05 in1.3 mm
12:05 PM 45.3°F7.4°C 32.5°F0.3°C 61% Calm Calm 1.4 mph2.3 kmh 29.29 in991.9 mb 0.00 in0.0 mm 0.00 in0.0 mm 0.05 in1.3 mm
12:20 PM 46.6°F8.1°C 33.7°F0.9°C 61% 0.6 mph N1.0 kmh N 2.0 mph3.2 kmh 29.29 in991.9 mb 0.00 in0.0 mm 0.00 in0.0 mm 0.05 in1.3 mm
12:35 PM 46.8°F8.2°C 33.5°F0.8°C 60% 0.6 mph N1.0 kmh N 2.0 mph3.2 kmh 29.29 in991.9 mb 0.00 in0.0 mm 0.00 in0.0 mm 0.05 in1.3 mm
12:50 PM 47.1°F8.4°C 33.8°F1.0°C 60% 0.6 mph N1.0 kmh N 1.4 mph2.3 kmh 29.30 in992.2 mb 0.00 in0.0 mm 0.00 in0.0 mm 0.05 in1.3 mm
01:05 PM 46.9°F8.3°C 33.2°F0.7°C 59% Calm Calm 0.6 mph1.0 kmh 29.30 in992.2 mb 0.00 in0.0 mm 0.00 in0.0 mm 0.05 in1.3 mm
01:20 PM 46.9°F8.3°C 32.8°F0.4°C 58% Calm Calm 0.6 mph1.0 kmh 29.30 in992.2 mb 0.00 in0.0 mm 0.00 in0.0 mm 0.05 in1.3 mm
01:35 PM 46.9°F8.3°C 32.8°F0.4°C 58% Calm Calm 1.4 mph2.3 kmh 29.31 in992.6 mb 0.01 in0.3 mm 0.05 in1.3 mm 0.06 in1.5 mm
01:50 PM 48.0°F8.9°C 33.8°F1.0°C 58% 0.6 mph N1.0 kmh N 2.8 mph4.5 kmh 29.31 in992.6 mb 0.02 in0.5 mm 0.05 in1.3 mm 0.07 in1.8 mm
02:05 PM 48.7°F9.3°C 34.5°F1.4°C 58% Calm Calm 0.6 mph1.0 kmh 29.31 in992.6 mb 0.02 in0.5 mm 0.00 in0.0 mm 0.07 in1.8 mm
02:20 PM 49.6°F9.8°C 34.9°F1.6°C 57% Calm Calm 2.0 mph3.2 kmh 29.31 in992.6 mb 0.00 in0.0 mm 0.00 in0.0 mm 0.07 in1.8 mm
02:35 PM 50.4°F10.2°C 35.1°F1.7°C 56% 0.6 mph N1.0 kmh N 2.8 mph4.5 kmh 29.30 in992.2 mb 0.00 in0.0 mm 0.00 in0.0 mm 0.07 in1.8 mm
02:50 PM 50.7°F10.4°C 34.5°F1.4°C 54% 0.6 mph N1.0 kmh N 2.8 mph4.5 kmh 29.31 in992.6 mb 0.00 in0.0 mm 0.00 in0.0 mm 0.07 in1.8 mm
03:05 PM 51.4°F10.8°C 34.7°F1.5°C 53% Calm Calm 0.6 mph1.0 kmh 29.31 in992.6 mb 0.00 in0.0 mm 0.00 in0.0 mm 0.07 in1.8 mm
03:20 PM 52.2°F11.2°C 34.4°F1.3°C 51% Calm Calm 0.6 mph1.0 kmh 29.31 in992.6 mb 0.00 in0.0 mm 0.00 in0.0 mm 0.07 in1.8 mm
03:35 PM 52.7°F11.5°C 33.9°F1.1°C 49% Calm Calm 0.6 mph1.0 kmh 29.31 in992.6 mb 0.00 in0.0 mm 0.00 in0.0 mm 0.07 in1.8 mm
03:50 PM 52.7°F11.5°C 32.9°F0.5°C 47% Calm Calm 0.6 mph1.0 kmh 29.31 in992.6 mb 0.00 in0.0 mm 0.00 in0.0 mm 0.07 in1.8 mm
04:05 PM 52.5°F11.4°C 31.6°F-0.2°C 45% 0.6 mph N1.0 kmh N 2.0 mph3.2 kmh 29.31 in992.6 mb 0.00 in0.0 mm 0.00 in0.0 mm 0.07 in1.8 mm
04:20 PM 52.5°F11.4°C 30.5°F-0.8°C 43% Calm Calm 0.6 mph1.0 kmh 29.31 in992.6 mb 0.00 in0.0 mm 0.00 in0.0 mm 0.07 in1.8 mm
04:35 PM 52.3°F11.3°C 29.1°F-1.6°C 41% 0.6 mph N1.0 kmh N 2.0 mph3.2 kmh 29.31 in992.6 mb 0.00 in0.0 mm 0.00 in0.0 mm 0.07 in1.8 mm
04:50 PM 52.2°F11.2°C 27.8°F-2.3°C 39% 0.6 mph N1.0 kmh N 1.4 mph2.3 kmh 29.31 in992.6 mb 0.00 in0.0 mm 0.00 in0.0 mm 0.07 in1.8 mm
05:05 PM 52.0°F11.1°C 26.3°F-3.2°C 37% 0.6 mph N1.0 kmh N 1.4 mph2.3 kmh 29.31 in992.6 mb 0.00 in0.0 mm 0.00 in0.0 mm 0.07 in1.8 mm
05:20 PM 51.1°F10.6°C 23.5°F-4.7°C 34% 0.6 mph N1.0 kmh N 2.0 mph3.2 kmh 29.32 in992.9 mb 0.00 in0.0 mm 0.00 in0.0 mm 0.07 in1.8 mm
05:35 PM 50.5°F10.3°C 22.3°F-5.4°C 33% 1.4 mph N2.3 kmh N 3.4 mph5.5 kmh 29.32 in992.9 mb 0.00 in0.0 mm 0.00 in0.0 mm 0.07 in1.8 mm
05:50 PM 50.2°F10.1°C 22.0°F-5.6°C 33% 0.6 mph N1.0 kmh N 2.0 mph3.2 kmh 29.32 in992.9 mb 0.00 in0.0 mm 0.00 in0.0 mm 0.07 in1.8 mm
06:05 PM 50.2°F10.1°C 22.0°F-5.6°C 33% 0.6 mph N1.0 kmh N 1.4 mph2.3 kmh 29.31 in992.6 mb 0.00 in0.0 mm 0.00 in0.0 mm 0.07 in1.8 mm
06:20 PM 50.4°F10.2°C 22.1°F-5.5°C 33% Calm Calm 1.4 mph2.3 kmh 29.31 in992.6 mb 0.00 in0.0 mm 0.00 in0.0 mm 0.07 in1.8 mm
06:35 PM 50.5°F10.3°C 22.3°F-5.4°C 33% 0.6 mph N1.0 kmh N 2.8 mph4.5 kmh 29.32 in992.9 mb 0.00 in0.0 mm 0.00 in0.0 mm 0.07 in1.8 mm
06:50 PM 50.5°F10.3°C 22.3°F-5.4°C 33% Calm Calm 1.4 mph2.3 kmh 29.32 in992.9 mb 0.00 in0.0 mm 0.00 in0.0 mm 0.07 in1.8 mm
07:05 PM 50.7°F10.4°C 22.5°F-5.3°C 33% Calm Calm 0.6 mph1.0 kmh 29.32 in992.9 mb 0.00 in0.0 mm 0.00 in0.0 mm 0.07 in1.8 mm
07:20 PM 50.9°F10.5°C 22.6°F-5.2°C 33% Calm Calm 0.6 mph1.0 kmh 29.32 in992.9 mb 0.00 in0.0 mm 0.00 in0.0 mm 0.07 in1.8 mm
07:35 PM 50.4°F10.2°C 22.1°F-5.5°C 33% Calm Calm -- 29.32 in992.9 mb 0.04 in1.0 mm 0.15 in3.8 mm 0.11 in2.8 mm
07:50 PM 50.0°F10.0°C 22.5°F-5.3°C 34% Calm Calm 0.6 mph1.0 kmh 29.32 in992.9 mb 0.06 in1.5 mm 0.10 in2.5 mm 0.14 in3.6 mm
08:05 PM 49.3°F9.6°C 25.2°F-3.8°C 39% Calm Calm -- 29.31 in992.6 mb 0.06 in1.5 mm 0.00 in0.0 mm 0.14 in3.6 mm
08:20 PM 48.9°F9.4°C 28.9°F-1.7°C 46% Calm Calm 0.6 mph1.0 kmh 29.32 in992.9 mb 0.00 in0.0 mm 0.00 in0.0 mm 0.14 in3.6 mm
08:35 PM 48.7°F9.3°C 29.2°F-1.6°C 47% Calm Calm 1.4 mph2.3 kmh 29.31 in992.6 mb 0.00 in0.0 mm 0.00 in0.0 mm 0.14 in3.6 mm
08:50 PM 48.7°F9.3°C 29.7°F-1.3°C 48% Calm Calm 0.6 mph1.0 kmh 29.31 in992.6 mb 0.00 in0.0 mm 0.00 in0.0 mm 0.14 in3.6 mm
09:05 PM 49.1°F9.5°C 30.1°F-1.1°C 48% 1.4 mph N2.3 kmh N 2.0 mph3.2 kmh 29.30 in992.2 mb 0.00 in0.0 mm 0.00 in0.0 mm 0.14 in3.6 mm
09:20 PM 48.9°F9.4°C 30.4°F-0.9°C 49% Calm Calm 1.4 mph2.3 kmh 29.30 in992.2 mb 0.00 in0.0 mm 0.00 in0.0 mm 0.14 in3.6 mm
09:35 PM 49.1°F9.5°C 30.6°F-0.8°C 49% 0.6 mph N1.0 kmh N 2.8 mph4.5 kmh 29.30 in992.2 mb 0.00 in0.0 mm 0.00 in0.0 mm 0.14 in3.6 mm
09:50 PM 49.5°F9.7°C 31.4°F-0.3°C 50% 1.4 mph N2.3 kmh N 3.4 mph5.5 kmh 29.30 in992.2 mb 0.00 in0.0 mm 0.00 in0.0 mm 0.14 in3.6 mm
10:05 PM 49.5°F9.7°C 31.9°F-0.1°C 51% 0.6 mph N1.0 kmh N 2.8 mph4.5 kmh 29.30 in992.2 mb 0.00 in0.0 mm 0.00 in0.0 mm 0.14 in3.6 mm
10:20 PM 49.8°F9.9°C 32.3°F0.2°C 51% 0.6 mph N1.0 kmh N 3.4 mph5.5 kmh 29.30 in992.2 mb 0.00 in0.0 mm 0.00 in0.0 mm 0.14 in3.6 mm
10:35 PM 50.0°F10.0°C 32.4°F0.2°C 51% 3.4 mph N5.5 kmh N 6.2 mph10.0 kmh 29.30 in992.2 mb 0.00 in0.0 mm 0.00 in0.0 mm 0.14 in3.6 mm
10:50 PM 50.2°F10.1°C 33.1°F0.6°C 52% 0.6 mph N1.0 kmh N 2.8 mph4.5 kmh 29.29 in991.9 mb 0.00 in0.0 mm 0.00 in0.0 mm 0.14 in3.6 mm
11:05 PM 50.2°F10.1°C 33.1°F0.6°C 52% 1.4 mph N2.3 kmh N 2.0 mph3.2 kmh 29.30 in992.2 mb 0.01 in0.3 mm 0.02 in0.5 mm 0.15 in3.8 mm
11:20 PM 50.0°F10.0°C 32.9°F0.5°C 52% 1.4 mph N2.3 kmh N 4.0 mph6.4 kmh 29.29 in991.9 mb 0.00 in0.0 mm 0.00 in0.0 mm 0.15 in3.8 mm
11:35 PM 50.0°F10.0°C 32.9°F0.5°C 52% 0.6 mph N1.0 kmh N 2.8 mph4.5 kmh 29.28 in991.5 mb 0.00 in0.0 mm 0.00 in0.0 mm 0.15 in3.8 mm
11:50 PM 50.2°F10.1°C 33.1°F0.6°C 52% 1.4 mph N2.3 kmh N 3.4 mph5.5 kmh 29.28 in991.5 mb 0.00 in0.0 mm 0.00 in0.0 mm 0.15 in3.8 mm